Time;durP1;ratioP1;P1;durP2;ratioP2;P2;SDS_P1;SDS_P2;PMS_P1;PMS_P2;Temp;Humidity;BMP_temperature;BMP_pressure;BME280_temperature;BME280_humidity;BME280_pressure;Samples;Min_cycle;Max_cycle;Signal;HPM_P1;HPM_P2
2023/08/30 00:01:50;;;;;;;3.33;2.50;;;15.70;99.90;;;;;;5023075;28;20199;-75
2023/08/30 00:04:15;;;;;;;4.55;2.33;;;15.80;99.90;;;;;;5026794;28;20651;-75
2023/08/30 00:06:41;;;;;;;4.80;2.10;;;15.80;99.90;;;;;;5020952;28;20215;-75
2023/08/30 00:09:07;;;;;;;3.58;2.58;;;15.80;99.90;;;;;;5026060;28;20208;-76
2023/08/30 00:11:32;;;;;;;2.65;2.35;;;15.70;99.90;;;;;;5020719;28;20826;-75
2023/08/30 00:14:06;;;;;;;4.72;2.50;;;15.70;99.90;;;;;;5023015;28;20258;-76
2023/08/30 00:16:33;;;;;;;12.20;8.80;;;15.80;99.90;;;;;;5021624;28;20707;-78
2023/08/30 00:18:59;;;;;;;4.10;2.20;;;15.80;99.90;;;;;;5021582;28;20230;-76
2023/08/30 00:21:25;;;;;;;3.78;3.20;;;15.80;99.90;;;;;;5022909;28;20647;-76
2023/08/30 00:23:51;;;;;;;7.68;3.88;;;15.70;99.90;;;;;;5021783;28;20212;-75
2023/08/30 00:26:17;;;;;;;4.95;3.50;;;15.60;99.90;;;;;;5018265;28;20215;-75
2023/08/30 00:28:42;;;;;;;3.08;2.40;;;15.70;99.90;;;;;;5023983;28;20228;-76
2023/08/30 00:31:08;;;;;;;4.05;2.20;;;15.60;99.90;;;;;;5023608;28;20181;-77
2023/08/30 00:33:34;;;;;;;4.15;2.70;;;15.60;99.90;;;;;;5022547;28;20647;-76
2023/08/30 00:36:00;;;;;;;3.22;2.30;;;15.60;99.90;;;;;;5024302;28;20730;-77
2023/08/30 00:38:29;;;;;;;3.35;2.10;;;15.60;99.90;;;;;;5026856;28;20208;-79
2023/08/30 00:40:55;;;;;;;3.28;2.40;;;15.60;99.90;;;;;;5036836;28;20584;-76
2023/08/30 00:43:20;;;;;;;4.03;2.60;;;15.50;99.90;;;;;;5021463;28;20207;-76
2023/08/30 00:45:47;;;;;;;4.10;1.92;;;15.50;99.90;;;;;;5033696;28;20541;-78
2023/08/30 00:48:15;;;;;;;4.38;2.38;;;15.50;99.90;;;;;;5022572;28;20243;-79
2023/08/30 00:50:42;;;;;;;4.22;1.98;;;15.50;99.90;;;;;;5031592;28;20211;-77
2023/08/30 00:53:08;;;;;;;2.75;2.30;;;15.50;99.90;;;;;;5024386;28;20257;-77
2023/08/30 00:55:37;;;;;;;4.47;2.90;;;15.50;99.90;;;;;;5022433;28;20566;-79
2023/08/30 00:58:03;;;;;;;2.65;2.42;;;15.50;99.90;;;;;;5022550;28;20183;-76
2023/08/30 01:00:32;;;;;;;3.17;2.28;;;15.50;99.90;;;;;;5019408;28;20212;-76
2023/08/30 01:02:58;;;;;;;4.15;2.70;;;15.60;99.90;;;;;;5018947;28;20652;-77
2023/08/30 01:05:24;;;;;;;2.72;2.25;;;15.60;99.90;;;;;;5021240;28;20212;-76
2023/08/30 01:07:53;;;;;;;3.95;2.40;;;15.60;99.90;;;;;;5037216;28;20745;-73
2023/08/30 01:10:27;;;;;;;3.78;2.40;;;15.60;99.90;;;;;;5029205;28;20272;-73
2023/08/30 01:12:58;;;;;;;3.85;2.50;;;15.60;99.90;;;;;;5026901;28;20177;-76
2023/08/30 01:15:25;;;;;;;3.03;2.08;;;15.60;99.90;;;;;;5030789;28;20208;-75
2023/08/30 01:17:53;;;;;;;2.53;2.13;;;15.60;99.90;;;;;;5032914;28;20204;-76
2023/08/30 01:20:22;;;;;;;3.42;2.42;;;15.50;99.90;;;;;;5028920;28;20343;-78
2023/08/30 01:23:19;;;;;;;3.55;2.60;;;15.50;99.90;;;;;;5021692;28;20208;-76
2023/08/30 01:26:20;;;;;;;3.30;2.08;;;15.50;99.90;;;;;;5027693;28;20215;-74
2023/08/30 01:28:47;;;;;;;3.90;2.40;;;15.40;99.90;;;;;;5015353;28;20227;-75
2023/08/30 01:31:14;;;;;;;3.55;2.40;;;15.40;99.90;;;;;;5020078;28;20223;-75
2023/08/30 01:33:41;;;;;;;3.88;3.10;;;15.40;99.90;;;;;;5027554;28;20184;-75
2023/08/30 01:36:06;;;;;;;2.95;2.30;;;15.40;99.90;;;;;;5020618;28;20226;-75
2023/08/30 01:38:33;;;;;;;3.17;2.45;;;15.40;99.90;;;;;;5019504;28;20284;-75
2023/08/30 01:41:00;;;;;;;3.33;2.90;;;15.50;99.90;;;;;;5024035;28;20200;-75
2023/08/30 01:43:28;;;;;;;3.88;2.45;;;15.60;99.90;;;;;;5034099;28;20564;-75
2023/08/30 01:45:56;;;;;;;3.58;2.53;;;15.50;99.90;;;;;;5034308;28;20592;-75
2023/08/30 01:48:23;;;;;;;2.45;2.22;;;15.50;99.90;;;;;;5030936;28;20212;-74
2023/08/30 01:50:49;;;;;;;3.00;2.50;;;15.50;99.90;;;;;;5030677;28;20203;-75
2023/08/30 01:53:15;;;;;;;3.05;2.45;;;15.50;99.90;;;;;;5029275;28;20216;-76
2023/08/30 01:55:42;;;;;;;6.00;2.72;;;15.50;99.90;;;;;;5023830;28;20781;-75
2023/08/30 01:58:09;;;;;;;4.45;2.70;;;15.50;99.90;;;;;;5021263;28;20267;-76
2023/08/30 02:00:37;;;;;;;4.50;2.47;;;15.50;99.90;;;;;;5030434;28;20177;-75
2023/08/30 02:03:12;;;;;;;3.88;2.72;;;15.40;99.90;;;;;;5027707;28;20205;-76
2023/08/30 02:06:01;;;;;;;2.83;2.20;;;15.40;99.90;;;;;;5026585;28;20205;-75
2023/08/30 02:08:40;;;;;;;2.95;2.22;;;15.40;99.90;;;;;;5025941;28;20213;-75
2023/08/30 02:11:13;;;;;;;4.00;2.33;;;15.30;99.90;;;;;;5016781;28;20215;-74
2023/08/30 02:13:40;;;;;;;3.08;2.40;;;15.40;99.90;;;;;;5023736;28;20303;-76
2023/08/30 02:16:09;;;;;;;3.38;2.72;;;15.40;99.90;;;;;;5022562;28;20231;-75
2023/08/30 02:18:36;;;;;;;5.18;2.83;;;15.30;99.90;;;;;;5022587;28;20185;-75
2023/08/30 02:21:02;;;;;;;3.95;2.42;;;15.20;99.90;;;;;;5030765;28;20200;-76
2023/08/30 02:23:27;;;;;;;4.30;2.58;;;15.20;99.90;;;;;;5030268;28;20556;-74
2023/08/30 02:25:55;;;;;;;3.03;2.33;;;15.20;99.90;;;;;;5029652;28;20211;-75
2023/08/30 02:28:21;;;;;;;3.75;2.50;;;15.10;99.90;;;;;;5029453;28;20180;-75
2023/08/30 02:30:46;;;;;;;3.85;2.92;;;15.10;99.90;;;;;;5028776;28;20564;-76
2023/08/30 02:33:12;;;;;;;3.25;2.50;;;15.10;99.90;;;;;;5029214;28;20635;-75
2023/08/30 02:35:38;;;;;;;3.67;2.35;;;15.20;99.90;;;;;;5028708;28;20255;-76
2023/08/30 02:38:04;;;;;;;3.03;2.30;;;15.20;99.90;;;;;;5029646;28;20810;-75
2023/08/30 02:40:31;;;;;;;2.33;2.13;;;15.10;99.90;;;;;;5026863;28;20247;-75
2023/08/30 02:42:57;;;;;;;4.28;2.95;;;15.10;99.90;;;;;;5028409;28;20259;-75
2023/08/30 02:45:22;;;;;;;4.75;2.78;;;15.10;99.90;;;;;;5022249;28;20952;-75
2023/08/30 02:47:48;;;;;;;4.03;2.83;;;15.00;99.90;;;;;;5024081;28;20730;-74
2023/08/30 02:50:14;;;;;;;9.38;3.55;;;15.00;99.90;;;;;;5022123;28;20291;-76
2023/08/30 02:52:40;;;;;;;4.07;3.03;;;15.00;99.90;;;;;;5021874;28;20205;-76
2023/08/30 02:55:06;;;;;;;3.75;2.92;;;15.00;99.90;;;;;;5026114;28;20184;-75
2023/08/30 02:57:32;;;;;;;3.53;3.22;;;15.00;99.90;;;;;;5029207;28;20215;-75
2023/08/30 02:59:57;;;;;;;6.28;3.10;;;14.90;99.90;;;;;;5029480;28;20205;-75
2023/08/30 03:02:23;;;;;;;4.13;3.28;;;14.90;99.90;;;;;;5032798;28;20212;-76
2023/08/30 03:04:48;;;;;;;4.10;3.53;;;14.90;99.90;;;;;;5031441;28;20212;-74
2023/08/30 03:07:14;;;;;;;5.00;3.55;;;14.90;99.90;;;;;;5028300;28;20200;-73
2023/08/30 03:09:40;;;;;;;3.30;3.00;;;14.90;99.90;;;;;;5026919;28;20264;-73
2023/08/30 03:12:06;;;;;;;4.85;3.15;;;15.00;99.90;;;;;;5028382;28;20208;-72
2023/08/30 03:14:32;;;;;;;4.20;3.35;;;15.00;99.90;;;;;;5024562;28;20208;-73
2023/08/30 03:16:57;;;;;;;5.68;3.70;;;15.00;99.90;;;;;;5025662;28;20887;-72
2023/08/30 03:19:23;;;;;;;7.25;3.80;;;15.00;99.90;;;;;;5023087;28;20230;-72
2023/08/30 03:21:48;;;;;;;6.82;3.70;;;15.00;99.90;;;;;;5021733;28;20721;-74
2023/08/30 03:24:15;;;;;;;6.75;3.88;;;15.00;99.90;;;;;;5023655;28;20219;-76
2023/08/30 03:26:43;;;;;;;5.95;3.28;;;15.00;99.90;;;;;;5022746;28;20213;-76
2023/08/30 03:29:09;;;;;;;4.53;3.50;;;14.90;99.90;;;;;;5022868;28;20772;-75
2023/08/30 03:31:34;;;;;;;4.57;3.97;;;14.90;99.90;;;;;;5019591;28;20212;-74
2023/08/30 03:34:00;;;;;;;5.80;4.13;;;14.90;99.90;;;;;;5031233;28;20186;-75
2023/08/30 03:36:26;;;;;;;6.18;3.60;;;14.80;99.90;;;;;;5028584;28;20217;-75
2023/08/30 03:38:51;;;;;;;7.13;4.45;;;14.80;99.90;;;;;;5026851;28;20225;-74
2023/08/30 03:41:18;;;;;;;5.03;4.53;;;14.70;99.90;;;;;;5028481;28;20208;-75
2023/08/30 03:43:44;;;;;;;6.53;4.43;;;14.70;99.90;;;;;;5026409;28;20227;-75
2023/08/30 03:46:11;;;;;;;7.82;4.60;;;14.80;99.90;;;;;;5026822;28;20208;-78
2023/08/30 03:48:37;;;;;;;6.75;4.97;;;14.70;99.90;;;;;;5025567;28;20176;-74
2023/08/30 03:51:03;;;;;;;5.95;4.65;;;14.80;99.90;;;;;;5026899;28;20204;-76
2023/08/30 03:53:30;;;;;;;5.78;4.43;;;14.70;99.90;;;;;;5024403;28;20291;-75
2023/08/30 03:55:55;;;;;;;9.52;4.68;;;14.70;99.90;;;;;;5026498;28;20856;-75
2023/08/30 03:58:21;;;;;;;7.93;4.45;;;14.60;99.90;;;;;;5023505;28;20259;-75
2023/08/30 04:00:47;;;;;;;8.80;4.90;;;14.60;99.90;;;;;;5022322;28;20181;-75
2023/08/30 04:03:14;;;;;;;6.30;4.55;;;14.60;99.90;;;;;;5022139;28;20204;-75
2023/08/30 04:05:40;;;;;;;6.68;4.55;;;14.60;99.90;;;;;;5023090;28;20205;-74
2023/08/30 04:08:07;;;;;;;6.63;4.25;;;14.70;99.90;;;;;;5021895;28;20208;-74
2023/08/30 04:10:40;;;;;;;6.18;4.50;;;14.70;99.90;;;;;;5026405;28;20258;-75
2023/08/30 04:13:08;;;;;;;6.80;4.38;;;14.70;99.90;;;;;;5025712;28;20183;-75
2023/08/30 04:15:34;;;;;;;6.22;4.25;;;14.70;99.90;;;;;;5027110;28;20191;-75
2023/08/30 04:18:00;;;;;;;4.90;3.97;;;14.80;99.90;;;;;;5026538;28;20204;-76
2023/08/30 04:20:26;;;;;;;7.93;4.75;;;14.80;99.90;;;;;;5027925;28;20218;-76
2023/08/30 04:22:53;;;;;;;5.03;4.35;;;14.70;99.90;;;;;;5025475;28;20287;-75
2023/08/30 04:25:19;;;;;;;5.18;3.80;;;14.80;99.90;;;;;;5025555;28;20218;-76
2023/08/30 04:27:44;;;;;;;7.22;4.25;;;14.80;99.90;;;;;;5025630;28;20205;-76
2023/08/30 04:30:10;;;;;;;9.98;4.30;;;14.80;99.90;;;;;;5027920;28;20212;-76
2023/08/30 04:32:36;;;;;;;5.03;4.15;;;14.80;99.90;;;;;;5024304;28;20294;-76
2023/08/30 04:35:02;;;;;;;5.75;3.60;;;14.70;99.90;;;;;;5028187;28;20286;-75
2023/08/30 04:37:31;;;;;;;5.68;4.03;;;14.80;99.90;;;;;;5021867;28;20322;-75
2023/08/30 04:39:57;;;;;;;6.72;4.05;;;14.80;99.90;;;;;;5024843;28;20597;-75
2023/08/30 04:42:23;;;;;;;7.18;3.85;;;14.80;99.90;;;;;;5022079;28;20208;-75
2023/08/30 04:44:48;;;;;;;8.20;4.05;;;14.80;99.90;;;;;;5019359;28;20213;-75
2023/08/30 04:47:14;;;;;;;4.30;3.90;;;14.90;99.90;;;;;;5033929;28;20266;-76
2023/08/30 04:49:40;;;;;;;5.72;3.55;;;15.00;99.90;;;;;;5039367;28;20223;-73
2023/08/30 04:52:06;;;;;;;7.05;4.00;;;15.10;99.90;;;;;;5041774;28;20589;-74
2023/08/30 04:54:31;;;;;;;7.10;4.13;;;15.20;99.90;;;;;;5036019;28;20267;-75
2023/08/30 04:56:57;;;;;;;5.50;4.15;;;15.20;99.90;;;;;;5036697;28;20212;-76
2023/08/30 04:59:22;;;;;;;8.65;3.60;;;15.10;99.90;;;;;;5037918;28;20215;-74
2023/08/30 05:01:49;;;;;;;4.38;3.50;;;15.20;99.90;;;;;;5032787;28;20216;-72
2023/08/30 05:04:15;;;;;;;4.97;3.97;;;15.30;99.90;;;;;;5035212;28;20214;-75
2023/08/30 05:06:40;;;;;;;5.13;3.58;;;15.40;99.90;;;;;;5030431;28;20275;-72
2023/08/30 05:09:06;;;;;;;4.82;3.90;;;15.40;99.90;;;;;;5028472;28;20208;-74
2023/08/30 05:11:31;;;;;;;3.67;3.35;;;15.60;99.90;;;;;;5028180;28;20220;-74
2023/08/30 05:13:57;;;;;;;3.60;3.05;;;15.60;99.90;;;;;;5032360;28;20265;-74
2023/08/30 05:16:23;;;;;;;5.90;3.55;;;15.70;99.90;;;;;;5026259;28;20232;-73
2023/08/30 05:18:48;;;;;;;4.95;3.17;;;15.70;99.90;;;;;;5025245;28;20180;-74
2023/08/30 05:21:14;;;;;;;5.03;2.97;;;15.80;99.90;;;;;;5025630;28;20207;-75
2023/08/30 05:23:44;;;;;;;4.25;2.88;;;15.90;99.90;;;;;;5031011;28;20904;-74
2023/08/30 05:26:12;;;;;;;6.03;3.53;;;16.10;99.90;;;;;;5032096;28;20211;-74
2023/08/30 05:28:38;;;;;;;5.45;3.45;;;16.20;99.90;;;;;;5037763;28;20204;-74
2023/08/30 05:31:03;;;;;;;5.47;3.80;;;16.20;99.90;;;;;;5038573;28;20179;-75
2023/08/30 05:33:29;;;;;;;5.13;3.60;;;16.30;99.90;;;;;;5037044;28;20188;-75
2023/08/30 05:35:55;;;;;;;4.72;3.53;;;16.20;99.90;;;;;;5040992;28;20216;-75
2023/08/30 05:38:21;;;;;;;7.07;3.90;;;16.20;99.90;;;;;;5035064;28;20223;-75
2023/08/30 05:40:46;;;;;;;3.90;3.30;;;16.20;99.90;;;;;;5031515;28;20204;-73
2023/08/30 05:43:12;;;;;;;4.80;3.92;;;16.30;99.90;;;;;;5033788;28;20206;-75
2023/08/30 05:45:37;;;;;;;9.90;4.47;;;16.30;99.90;;;;;;5029555;28;20208;-75
2023/08/30 05:48:03;;;;;;;4.90;4.32;;;16.30;99.90;;;;;;5080170;23;20223;-74
2023/08/30 05:50:29;;;;;;;6.85;4.38;;;16.40;99.90;;;;;;5064735;28;20211;-75
2023/08/30 05:52:55;;;;;;;7.80;4.60;;;16.40;99.90;;;;;;5045839;28;20214;-75
2023/08/30 05:55:21;;;;;;;5.82;4.22;;;16.40;99.90;;;;;;5069448;28;20179;-75
2023/08/30 05:57:46;;;;;;;4.75;3.90;;;16.40;99.90;;;;;;5048075;28;20698;-73
2023/08/30 06:00:13;;;;;;;5.15;4.35;;;16.50;99.90;;;;;;5063691;28;20597;-75
2023/08/30 06:02:40;;;;;;;7.00;4.35;;;16.60;99.90;;;;;;5072002;28;20252;-75
2023/08/30 06:05:06;;;;;;;8.38;4.45;;;16.70;99.90;;;;;;5070886;28;20234;-75
2023/08/30 06:07:31;;;;;;;4.35;3.70;;;16.70;99.90;;;;;;5070293;28;20569;-75
2023/08/30 06:09:57;;;;;;;5.60;3.72;;;16.90;99.90;;;;;;5069215;28;20177;-74
2023/08/30 06:12:23;;;;;;;6.75;4.07;;;16.90;99.90;;;;;;5068879;28;20841;-74
2023/08/30 06:14:52;;;;;;;5.97;4.22;;;17.00;99.90;;;;;;5049993;28;20237;-73
2023/08/30 06:17:21;;;;;;;5.07;3.88;;;17.10;99.90;;;;;;5070977;28;20221;-75
2023/08/30 06:19:47;;;;;;;5.20;4.30;;;17.10;99.90;;;;;;5051953;28;20241;-75
2023/08/30 06:22:13;;;;;;;5.88;4.47;;;17.30;99.90;;;;;;5067267;28;20199;-75
2023/08/30 06:24:38;;;;;;;6.88;4.95;;;17.40;99.90;;;;;;5066979;28;20633;-75
2023/08/30 06:27:05;;;;;;;6.15;4.50;;;17.30;99.90;;;;;;5048034;28;20298;-75
2023/08/30 06:29:30;;;;;;;7.90;6.10;;;17.30;99.90;;;;;;5055221;28;20591;-75
2023/08/30 06:31:56;;;;;;;11.10;7.05;;;17.40;99.90;;;;;;5061364;28;20215;-74
2023/08/30 06:34:21;;;;;;;8.43;5.32;;;17.40;99.90;;;;;;5062893;28;20191;-75
2023/08/30 06:36:48;;;;;;;6.82;4.63;;;17.50;99.90;;;;;;5052359;28;20263;-75
2023/08/30 06:39:13;;;;;;;8.55;5.20;;;17.60;99.90;;;;;;5055171;28;20294;-75
2023/08/30 06:41:39;;;;;;;7.05;5.38;;;17.80;99.90;;;;;;5069737;28;20297;-75
2023/08/30 06:44:05;;;;;;;11.27;5.93;;;17.80;99.90;;;;;;5070192;28;20330;-74
2023/08/30 06:46:30;;;;;;;8.27;5.80;;;17.80;99.90;;;;;;5066076;28;20218;-75
2023/08/30 06:48:56;;;;;;;9.25;4.97;;;17.90;99.90;;;;;;5067425;28;20217;-75
2023/08/30 06:51:22;;;;;;;7.25;4.30;;;17.70;99.90;;;;;;5067828;28;20285;-75
2023/08/30 06:53:47;;;;;;;7.30;4.57;;;17.90;99.90;;;;;;5049027;28;20248;-74
2023/08/30 06:56:13;;;;;;;5.97;4.45;;;18.10;99.90;;;;;;5066082;28;20305;-75
2023/08/30 06:58:39;;;;;;;6.53;3.80;;;18.20;99.90;;;;;;5071401;28;20211;-75
2023/08/30 07:01:04;;;;;;;6.40;4.00;;;18.30;99.90;;;;;;5047049;28;20183;-74
2023/08/30 07:03:30;;;;;;;6.82;3.55;;;18.40;99.90;;;;;;5065140;28;20175;-74
2023/08/30 07:05:55;;;;;;;6.30;3.95;;;18.20;99.90;;;;;;5062896;28;20215;-74
2023/08/30 07:08:21;;;;;;;6.43;4.03;;;18.20;99.90;;;;;;5063410;28;20230;-74
2023/08/30 07:10:47;;;;;;;6.47;3.47;;;18.30;99.90;;;;;;5045281;28;20210;-74
2023/08/30 07:13:13;;;;;;;5.35;3.72;;;18.40;99.90;;;;;;5069145;28;20201;-74
2023/08/30 07:15:40;;;;;;;3.70;3.03;;;18.50;99.90;;;;;;5042251;28;20200;-74
2023/08/30 07:18:07;;;;;;;4.78;3.38;;;18.70;99.90;;;;;;5042424;28;20728;-73
2023/08/30 07:20:33;;;;;;;4.88;2.88;;;18.80;99.90;;;;;;5048814;28;20222;-75
2023/08/30 07:22:59;;;;;;;6.95;2.90;;;18.80;99.90;;;;;;5065927;28;20286;-75
2023/08/30 07:25:24;;;;;;;3.65;2.90;;;18.80;99.90;;;;;;5065973;28;20622;-75
2023/08/30 07:27:50;;;;;;;5.30;3.17;;;18.80;99.90;;;;;;5064397;28;20218;-77
2023/08/30 07:30:16;;;;;;;3.65;2.47;;;18.90;99.90;;;;;;5062876;28;20206;-73
2023/08/30 07:32:42;;;;;;;4.13;2.42;;;19.00;99.90;;;;;;5061716;28;20215;-74
2023/08/30 07:35:08;;;;;;;5.05;2.22;;;18.90;99.90;;;;;;5044735;28;20210;-73
2023/08/30 07:37:35;;;;;;;4.03;2.60;;;18.80;99.90;;;;;;5064116;28;20215;-77
2023/08/30 07:40:01;;;;;;;4.63;2.53;;;18.90;99.90;;;;;;5062536;28;20179;-76
2023/08/30 07:42:27;;;;;;;2.20;2.00;;;18.80;99.90;;;;;;5045733;28;20298;-77
2023/08/30 07:44:52;;;;;;;3.50;2.55;;;18.70;99.90;;;;;;5048668;28;20203;-79
2023/08/30 07:47:18;;;;;;;2.40;2.20;;;18.70;99.90;;;;;;5055033;28;20602;-77
2023/08/30 07:49:43;;;;;;;5.05;2.38;;;18.70;99.90;;;;;;5047529;28;20242;-76
2023/08/30 07:52:10;;;;;;;3.45;2.47;;;18.60;99.90;;;;;;5070549;28;20179;-77
2023/08/30 07:54:38;;;;;;;2.92;2.10;;;18.50;99.90;;;;;;5051783;28;20652;-74
2023/08/30 07:57:04;;;;;;;3.38;2.42;;;18.40;99.90;;;;;;5072905;28;20277;-80
2023/08/30 07:59:36;;;;;;;3.28;2.17;;;18.40;99.90;;;;;;5079231;28;20278;-78
2023/08/30 08:02:03;;;;;;;3.42;2.35;;;18.30;99.90;;;;;;5043399;28;20219;-73
2023/08/30 08:04:29;;;;;;;4.60;2.53;;;18.40;99.90;;;;;;5054654;28;20696;-76
2023/08/30 08:06:54;;;;;;;2.83;2.03;;;18.40;99.90;;;;;;5067217;28;20260;-73
2023/08/30 08:09:21;;;;;;;3.15;2.05;;;18.40;99.90;;;;;;5046774;28;20203;-75
2023/08/30 08:11:50;;;;;;;2.95;1.85;;;18.20;99.90;;;;;;5051455;28;20215;-74
2023/08/30 08:14:16;;;;;;;2.30;2.10;;;18.10;99.90;;;;;;5046045;28;20238;-73
2023/08/30 08:16:41;;;;;;;2.45;2.08;;;18.10;99.90;;;;;;5048018;28;20242;-76
2023/08/30 08:19:07;;;;;;;2.95;1.70;;;18.10;99.90;;;;;;5058471;28;20191;-75
2023/08/30 08:21:36;;;;;;;3.58;1.88;;;18.20;99.90;;;;;;5060527;28;20225;-75
2023/08/30 08:24:02;;;;;;;2.35;1.85;;;18.30;99.90;;;;;;5070720;28;20219;-75
2023/08/30 08:26:27;;;;;;;3.17;2.08;;;18.50;99.90;;;;;;5064494;28;20259;-74
2023/08/30 08:28:56;;;;;;;3.38;2.33;;;18.80;99.90;;;;;;5073143;28;20203;-74
2023/08/30 08:31:22;;;;;;;3.72;2.03;;;19.10;99.90;;;;;;5076943;28;20253;-77
2023/08/30 08:33:51;;;;;;;2.75;1.90;;;19.20;99.90;;;;;;5082077;28;20249;-73
2023/08/30 08:36:17;;;;;;;3.47;1.92;;;19.10;99.90;;;;;;5069332;28;20604;-75
2023/08/30 08:38:42;;;;;;;2.58;1.90;;;19.20;99.90;;;;;;5065168;28;20208;-75
2023/08/30 08:41:13;;;;;;;3.72;2.03;;;19.40;99.90;;;;;;5069412;28;20219;-76
2023/08/30 08:43:40;;;;;;;3.03;2.30;;;19.80;99.90;;;;;;5059751;28;20202;-74
2023/08/30 08:46:06;;;;;;;3.05;2.10;;;19.80;99.90;;;;;;5044845;28;20187;-73
2023/08/30 08:48:40;;;;;;;3.33;1.63;;;19.80;99.90;;;;;;5072727;28;20214;-75
2023/08/30 08:51:06;;;;;;;2.30;1.98;;;19.90;99.90;;;;;;5058353;28;20211;-74
2023/08/30 08:53:32;;;;;;;2.47;1.67;;;19.80;99.90;;;;;;5054289;28;20209;-74
2023/08/30 08:56:00;;;;;;;3.05;2.05;;;20.20;99.90;;;;;;5068995;28;20250;-77
2023/08/30 08:58:26;;;;;;;3.95;1.80;;;20.50;99.90;;;;;;5074318;28;20268;-74
2023/08/30 09:00:52;;;;;;;2.28;1.65;;;20.70;99.90;;;;;;5073283;28;20237;-74
2023/08/30 09:03:18;;;;;;;1.98;1.75;;;20.90;99.90;;;;;;5070214;28;20696;-72
2023/08/30 09:05:46;;;;;;;2.85;1.40;;;21.20;99.90;;;;;;5055253;28;20265;-74
2023/08/30 09:08:13;;;;;;;2.42;1.65;;;21.40;99.90;;;;;;5068606;28;20213;-73
2023/08/30 09:10:39;;;;;;;3.22;1.70;;;21.70;99.90;;;;;;5055207;28;20617;-72
2023/08/30 09:13:05;;;;;;;4.63;2.25;;;22.00;99.90;;;;;;5070927;28;20258;-72
2023/08/30 09:15:32;;;;;;;5.60;2.03;;;22.50;99.90;;;;;;5067225;28;20179;-73
2023/08/30 09:17:58;;;;;;;2.60;1.92;;;22.40;99.90;;;;;;5056288;28;20210;-76
2023/08/30 09:20:24;;;;;;;3.10;2.17;;;22.80;99.90;;;;;;5085215;28;20214;-78
2023/08/30 09:22:50;;;;;;;2.25;1.73;;;23.30;99.90;;;;;;5077768;28;20198;-76
2023/08/30 09:25:27;;;;;;;2.80;2.05;;;23.60;99.90;;;;;;5058439;28;20190;-79
2023/08/30 09:27:59;;;;;;;3.67;3.05;;;23.90;99.90;;;;;;5054669;28;20194;-77
2023/08/30 09:30:25;;;;;;;2.53;2.00;;;24.60;99.90;;;;;;5069445;28;20906;-75
2023/08/30 09:32:51;;;;;;;3.35;2.30;;;24.70;99.90;;;;;;5058491;28;20256;-74
2023/08/30 09:35:16;;;;;;;4.50;2.03;;;25.00;99.90;;;;;;5063294;28;20223;-76
2023/08/30 09:37:45;;;;;;;4.13;2.08;;;25.20;99.90;;;;;;5046935;28;20211;-77
2023/08/30 09:40:11;;;;;;;4.47;2.42;;;24.80;99.90;;;;;;5042991;28;20179;-75
2023/08/30 09:42:43;;;;;;;4.95;2.30;;;24.40;99.90;;;;;;5058227;28;20179;-76
2023/08/30 09:45:19;;;;;;;4.05;3.05;;;24.60;99.90;;;;;;5067197;28;20204;-76
2023/08/30 09:47:49;;;;;;;4.28;3.13;;;24.80;99.90;;;;;;5065689;28;20242;-78
2023/08/30 09:50:19;;;;;;;6.18;3.40;;;24.40;99.90;;;;;;5053453;28;20215;-76
2023/08/30 09:52:47;;;;;;;4.40;3.13;;;24.10;99.90;;;;;;5054239;28;20225;-77
2023/08/30 09:55:14;;;;;;;2.67;2.20;;;24.20;99.90;;;;;;5071692;28;20176;-76
2023/08/30 09:57:42;;;;;;;3.17;2.35;;;24.70;99.90;;;;;;5065632;28;20202;-78
2023/08/30 10:00:08;;;;;;;14.85;8.25;;;24.70;99.90;;;;;;5071139;28;20228;-79
2023/08/30 10:02:34;;;;;;;4.47;3.10;;;25.30;99.90;;;;;;5070939;28;20228;-78
2023/08/30 10:05:01;;;;;;;14.73;9.18;;;25.10;99.90;;;;;;5051865;28;20286;-80
2023/08/30 10:07:27;;;;;;;9.63;6.70;;;24.80;99.90;;;;;;5064866;28;20203;-78
2023/08/30 10:09:53;;;;;;;5.63;3.60;;;24.50;99.90;;;;;;5061378;28;20294;-77
2023/08/30 10:12:23;;;;;;;7.90;5.25;;;24.00;99.90;;;;;;5044941;28;20587;-76
2023/08/30 10:14:49;;;;;;;2.45;1.83;;;23.70;99.90;;;;;;5059748;28;20199;-76
2023/08/30 10:17:18;;;;;;;1.98;1.67;;;23.60;99.90;;;;;;5060633;28;20216;-73
2023/08/30 10:19:45;;;;;;;2.47;1.70;;;23.40;99.90;;;;;;5055996;28;20227;-73
2023/08/30 10:22:17;;;;;;;1.85;1.45;;;23.20;99.90;;;;;;5068434;28;20258;-70
2023/08/30 10:24:48;;;;;;;2.70;1.75;;;23.50;99.90;;;;;;5069409;28;20182;-76
2023/08/30 10:27:15;;;;;;;2.25;1.50;;;23.50;99.90;;;;;;5043962;28;20852;-74
2023/08/30 10:29:42;;;;;;;2.25;1.60;;;23.70;99.90;;;;;;5066252;28;20203;-73
2023/08/30 10:32:07;;;;;;;3.67;1.40;;;23.70;99.90;;;;;;5053824;28;20712;-76
2023/08/30 10:34:34;;;;;;;1.52;1.30;;;24.10;99.90;;;;;;5062644;28;20207;-76
2023/08/30 10:37:01;;;;;;;1.45;1.13;;;24.00;99.90;;;;;;5064599;28;20206;-75
2023/08/30 10:39:49;;;;;;;2.15;1.60;;;24.20;99.90;;;;;;5069611;28;20208;-74
2023/08/30 10:42:16;;;;;;;3.33;1.60;;;24.30;99.90;;;;;;5044926;28;20393;-77
2023/08/30 10:44:48;;;;;;;2.45;1.42;;;24.30;99.90;;;;;;5072286;28;20203;-73
2023/08/30 10:47:25;;;;;;;2.60;1.50;;;24.30;99.90;;;;;;5069273;28;20217;-73
2023/08/30 10:49:55;;;;;;;4.13;1.70;;;24.40;99.90;;;;;;5064868;28;20642;-75
2023/08/30 10:52:21;;;;;;;4.40;2.08;;;24.70;99.90;;;;;;5046293;28;20680;-75
2023/08/30 10:54:47;;;;;;;3.50;2.25;;;24.80;99.90;;;;;;5067501;28;20182;-74
2023/08/30 10:57:14;;;;;;;2.05;1.80;;;24.70;99.90;;;;;;5069884;28;20218;-77
2023/08/30 10:59:40;;;;;;;5.20;3.53;;;24.70;99.90;;;;;;5054010;28;20203;-76
2023/08/30 11:02:06;;;;;;;4.53;3.13;;;24.40;99.90;;;;;;5067988;28;20215;-75
2023/08/30 11:04:32;;;;;;;4.45;1.70;;;24.30;99.90;;;;;;5072854;28;20586;-76
2023/08/30 11:06:58;;;;;;;1.50;1.40;;;24.10;99.90;;;;;;5064201;28;20209;-76
2023/08/30 11:09:24;;;;;;;2.55;1.50;;;23.90;99.90;;;;;;5042554;28;20294;-75
2023/08/30 11:11:51;;;;;;;3.30;1.70;;;23.90;99.90;;;;;;5048460;28;20210;-77
2023/08/30 11:14:17;;;;;;;2.83;0.90;;;24.00;99.90;;;;;;5065827;28;20697;-76
2023/08/30 11:16:44;;;;;;;2.70;1.38;;;23.90;99.90;;;;;;5058897;28;20732;-76
2023/08/30 11:19:11;;;;;;;2.75;1.23;;;23.70;99.90;;;;;;5044862;28;20681;-79
2023/08/30 11:21:42;;;;;;;3.40;1.75;;;23.60;99.90;;;;;;5060596;28;20554;-77
2023/08/30 11:24:08;;;;;;;1.48;1.27;;;23.50;99.90;;;;;;5062965;28;20231;-78
2023/08/30 11:26:34;;;;;;;2.63;1.67;;;23.50;99.90;;;;;;5057837;28;20632;-75
2023/08/30 11:29:09;;;;;;;4.15;1.60;;;23.60;99.90;;;;;;5057021;28;20245;-77
2023/08/30 11:31:35;;;;;;;4.10;1.40;;;23.70;99.90;;;;;;5057404;28;20230;-76
2023/08/30 11:34:01;;;;;;;2.03;1.30;;;23.70;99.90;;;;;;5068528;28;20178;-73
2023/08/30 11:36:30;;;;;;;2.83;1.50;;;23.80;99.90;;;;;;5074717;28;20305;-75
2023/08/30 11:38:57;;;;;;;1.67;1.33;;;23.90;99.90;;;;;;5073362;28;20207;-77
2023/08/30 11:41:23;;;;;;;3.65;1.40;;;24.00;99.90;;;;;;5068328;28;20215;-78
2023/08/30 11:43:53;;;;;;;2.63;1.50;;;23.80;99.90;;;;;;5069221;28;20692;-80
2023/08/30 11:46:19;;;;;;;3.95;1.70;;;24.00;99.90;;;;;;5049089;28;20232;-76
2023/08/30 11:48:46;;;;;;;2.95;1.80;;;24.10;99.90;;;;;;5051767;28;20293;-79
2023/08/30 11:51:12;;;;;;;4.47;1.65;;;24.10;99.90;;;;;;5065158;28;20215;-78
2023/08/30 11:53:38;;;;;;;2.47;1.85;;;24.10;99.90;;;;;;5048185;28;20211;-76
2023/08/30 11:56:05;;;;;;;2.45;1.50;;;23.90;99.90;;;;;;5050558;28;20261;-80
2023/08/30 11:58:38;;;;;;;3.63;2.00;;;23.70;99.90;;;;;;5064277;28;20231;-79
2023/08/30 12:01:04;;;;;;;2.67;2.38;;;23.50;99.90;;;;;;5063133;28;20224;-83
2023/08/30 12:03:31;;;;;;;5.35;3.78;;;23.40;99.90;;;;;;5047528;28;20179;-76
2023/08/30 12:05:57;;;;;;;2.08;1.88;;;23.60;99.90;;;;;;5042625;28;20249;-75
2023/08/30 12:08:25;;;;;;;5.70;4.38;;;23.60;99.90;;;;;;5066863;28;20215;-78
2023/08/30 12:10:52;;;;;;;5.00;2.20;;;23.60;99.90;;;;;;5073965;28;20202;-74
2023/08/30 12:13:29;;;;;;;4.97;2.58;;;23.50;99.90;;;;;;5077707;28;20228;-81
2023/08/30 12:15:56;;;;;;;3.33;1.63;;;23.20;99.90;;;;;;5067591;28;20167;-74
2023/08/30 12:18:29;;;;;;;4.63;2.10;;;23.30;99.90;;;;;;5074963;28;20717;-79
2023/08/30 12:20:54;;;;;;;2.53;1.80;;;23.10;99.90;;;;;;5070118;28;20226;-76
2023/08/30 12:23:22;;;;;;;3.80;2.88;;;22.80;99.90;;;;;;5058093;28;20223;-77
2023/08/30 12:26:00;;;;;;;2.63;1.80;;;22.90;99.90;;;;;;5054423;28;20225;-77
2023/08/30 12:28:27;;;;;;;6.13;4.05;;;22.80;99.90;;;;;;5047592;28;20207;-77
2023/08/30 12:30:54;;;;;;;2.38;2.00;;;22.70;99.90;;;;;;5063218;28;20167;-77
2023/08/30 12:33:20;;;;;;;2.22;1.63;;;22.60;99.90;;;;;;5041067;28;20302;-77
2023/08/30 12:35:45;;;;;;;2.53;1.65;;;22.30;99.90;;;;;;5059894;28;20266;-78
2023/08/30 12:38:17;;;;;;;3.30;1.75;;;22.30;99.90;;;;;;5063706;28;20284;-79
2023/08/30 12:40:51;;;;;;;3.17;1.95;;;22.10;99.90;;;;;;5046445;28;20242;-79
2023/08/30 12:43:17;;;;;;;2.88;1.90;;;22.20;99.90;;;;;;5066540;28;20233;-78
2023/08/30 12:45:44;;;;;;;3.88;2.08;;;22.20;99.90;;;;;;5049399;28;20172;-79